Time;durP1;ratioP1;P1;durP2;ratioP2;P2;SDS_P1;SDS_P2;PMS_P1;PMS_P2;Temp;Humidity;BMP_temperature;BMP_pressure;BME280_temperature;BME280_humidity;BME280_pressure;Samples;Min_cycle;Max_cycle;Signal;HPM_P1;HPM_P2
2022/03/20 00:02:36;;;;;;;39.47;17.33;;;;;;;1.97;48.00;103321.22;3718708;78;98668;-80
2022/03/20 00:07:38;;;;;;;44.73;19.13;;;;;;;1.90;48.11;103319.19;3730417;77;98825;-80
2022/03/20 00:12:40;;;;;;;41.23;18.83;;;;;;;1.81;48.27;103319.34;3757813;78;99064;-81
2022/03/20 00:17:41;;;;;;;40.17;18.20;;;;;;;1.75;48.25;103321.15;3726350;78;99021;-81
2022/03/20 00:22:42;;;;;;;38.63;17.00;;;;;;;1.71;48.34;103315.92;3750754;78;31534;-80
2022/03/20 00:27:43;;;;;;;35.43;17.90;;;;;;;1.65;48.47;103307.97;3738939;77;99058;-81
2022/03/20 00:32:44;;;;;;;40.00;18.27;;;;;;;1.63;48.38;103308.73;3723732;78;99060;-81
2022/03/20 00:37:45;;;;;;;43.10;17.63;;;;;;;1.59;48.58;103302.17;3717111;77;98860;-81
2022/03/20 00:42:46;;;;;;;39.10;16.40;;;;;;;1.52;48.82;103305.56;3755371;78;98933;-81
2022/03/20 00:47:48;;;;;;;34.93;16.50;;;;;;;1.49;48.72;103306.08;3728893;76;98851;-81
2022/03/20 00:52:50;;;;;;;37.80;16.63;;;;;;;1.48;48.64;103298.45;3719380;78;31652;-80
2022/03/20 00:57:51;;;;;;;33.25;16.05;;;;;;;1.52;48.58;103298.78;3725859;77;99019;-81
2022/03/20 01:02:52;;;;;;;35.40;15.77;;;;;;;1.51;48.39;103295.27;3721328;78;99094;-81
2022/03/20 01:07:53;;;;;;;34.53;16.13;;;;;;;1.49;48.81;103302.00;3749218;78;98842;-80
2022/03/20 01:12:55;;;;;;;33.38;16.02;;;;;;;1.41;48.89;103295.09;3734261;77;98968;-80
2022/03/20 01:17:56;;;;;;;34.77;17.20;;;;;;;1.38;48.85;103293.41;3719152;78;98687;-81
2022/03/20 01:22:57;;;;;;;33.70;15.50;;;;;;;1.33;48.94;103295.52;3708917;78;30680;-80
2022/03/20 01:27:58;;;;;;;32.03;16.27;;;;;;;1.27;49.36;103289.69;3737301;78;98500;-79
2022/03/20 01:32:59;;;;;;;36.57;16.37;;;;;;;1.19;49.38;103292.82;3741642;78;97774;-81
2022/03/20 01:38:01;;;;;;;32.63;16.07;;;;;;;1.11;49.43;103285.07;3767075;77;98747;-80
2022/03/20 01:43:04;;;;;;;35.80;16.23;;;;;;;1.07;49.43;103285.30;3739763;78;98765;-80
2022/03/20 01:48:05;;;;;;;32.17;15.10;;;;;;;1.08;49.43;103275.25;3741169;77;99125;-80
2022/03/20 01:53:08;;;;;;;36.87;16.33;;;;;;;1.04;49.51;103276.27;3719621;78;103510;-79
2022/03/20 01:58:09;;;;;;;34.63;16.42;;;;;;;1.01;49.57;103272.72;3737091;78;98905;-80
2022/03/20 02:03:10;;;;;;;34.10;15.47;;;;;;;1.03;49.44;103271.09;3745158;78;99105;-81
2022/03/20 02:08:11;;;;;;;34.13;16.13;;;;;;;1.05;49.49;103263.55;3724415;78;99358;-81
2022/03/20 02:13:12;;;;;;;33.70;15.53;;;;;;;1.04;49.64;103265.42;3727475;78;99126;-79
2022/03/20 02:18:14;;;;;;;33.07;16.30;;;;;;;0.98;49.63;103267.77;3740568;78;98705;-81
2022/03/20 02:23:16;;;;;;;37.00;17.10;;;;;;;0.92;49.91;103262.48;3728646;78;98787;-81
2022/03/20 02:28:18;;;;;;;32.97;15.23;;;;;;;0.88;50.04;103253.22;3676415;80;99000;-81
2022/03/20 02:33:23;;;;;;;33.00;15.38;;;;;;;0.82;50.20;103255.55;3657515;80;99052;-80
2022/03/20 02:38:22;;;;;;;32.23;15.15;;;;;;;0.79;50.44;103261.45;3655925;80;99199;-80
2022/03/20 02:43:29;;;;;;;32.75;14.98;;;;;;;0.84;50.53;103253.41;3674854;79;99259;-80
2022/03/20 02:48:26;;;;;;;34.73;14.93;;;;;;;0.86;50.46;103243.97;3647640;79;98815;-80
2022/03/20 02:53:27;;;;;;;32.30;15.50;;;;;;;0.87;50.60;103249.67;3672746;78;98816;-79
2022/03/20 02:58:28;;;;;;;36.93;16.50;;;;;;;0.82;50.74;103242.00;3651589;79;98871;-80
2022/03/20 03:03:29;;;;;;;35.43;17.73;;;;;;;0.74;51.04;103241.02;3683546;80;98674;-80
2022/03/20 03:13:50;;;;;;;35.83;17.45;;;;;;;0.56;51.57;103241.23;3633692;80;98696;-80
2022/03/20 03:18:50;;;;;;;35.53;16.37;;;;;;;0.49;51.76;103237.82;3641956;80;98813;-80
2022/03/20 03:23:52;;;;;;;39.00;17.10;;;;;;;0.41;52.10;103236.87;3642671;80;99143;-81
2022/03/20 03:28:53;;;;;;;35.90;16.63;;;;;;;0.38;52.31;103243.59;3764652;77;98740;-80
2022/03/20 03:39:14;;;;;;;36.95;16.20;;;;;;;0.39;52.47;103241.16;3743260;77;98727;-81
2022/03/20 03:44:15;;;;;;;37.13;16.55;;;;;;;0.37;52.78;103240.59;3748128;78;98804;-81
2022/03/20 03:49:15;;;;;;;45.63;17.67;;;;;;;0.34;52.69;103243.77;3730825;78;99187;-81
2022/03/20 03:54:17;;;;;;;37.80;17.57;;;;;;;0.30;53.10;103237.73;3746600;77;99281;-82
2022/03/20 03:59:18;;;;;;;32.37;16.20;;;;;;;0.30;53.07;103243.15;3738139;78;98950;-81
2022/03/20 04:04:19;;;;;;;39.10;17.57;;;;;;;0.31;53.04;103239.38;3743732;78;31798;-80
2022/03/20 04:09:20;;;;;;;33.13;17.00;;;;;;;0.26;53.30;103237.91;3706313;78;99172;-82
2022/03/20 04:14:21;;;;;;;39.13;18.50;;;;;;;0.21;53.50;103233.23;3769426;77;99073;-81
2022/03/20 04:19:22;;;;;;;40.13;19.27;;;;;;;0.19;53.76;103239.95;3730575;78;98874;-81
2022/03/20 04:24:23;;;;;;;39.83;17.93;;;;;;;0.19;53.87;103240.78;3764589;78;98893;-81
2022/03/20 04:29:27;;;;;;;36.93;16.50;;;;;;;0.18;53.79;103245.08;3748426;77;98863;-81
2022/03/20 04:34:28;;;;;;;37.93;17.90;;;;;;;0.14;54.13;103249.31;3762777;78;32141;-82
2022/03/20 04:39:29;;;;;;;37.13;17.67;;;;;;;0.10;54.16;103254.39;3734939;77;98755;-80
2022/03/20 04:44:30;;;;;;;40.97;17.93;;;;;;;0.06;54.15;103250.51;3744282;77;98928;-80
2022/03/20 05:00:11;;;;;;;41.18;16.02;;;;;;;-0.04;54.64;103265.18;3735682;78;98799;-80
2022/03/20 05:05:12;;;;;;;41.23;18.87;;;;;;;-0.11;54.73;103263.66;3767208;78;99410;-80
2022/03/20 05:15:32;;;;;;;42.55;18.77;;;;;;;-0.22;54.94;103259.63;3734769;78;99291;-80
2022/03/20 05:20:35;;;;;;;38.57;18.60;;;;;;;-0.22;55.18;103263.97;3737544;78;99183;-80
2022/03/20 05:25:36;;;;;;;41.55;18.05;;;;;;;-0.21;55.03;103268.87;3757009;78;99021;-80
2022/03/20 05:30:37;;;;;;;43.63;20.13;;;;;;;-0.22;55.45;103273.16;3709297;78;99358;-81
2022/03/20 05:35:40;;;;;;;39.73;19.70;;;;;;;-0.20;55.29;103278.63;3725539;78;98968;-80
2022/03/20 05:40:43;;;;;;;39.33;18.10;;;;;;;-0.18;55.40;103283.81;3740974;78;98818;-81
2022/03/20 05:45:44;;;;;;;38.00;17.80;;;;;;;-0.17;55.33;103293.86;3769104;78;98917;-81
2022/03/20 05:50:45;;;;;;;39.20;17.92;;;;;;;-0.11;55.13;103287.50;3762283;78;98847;-81
2022/03/20 06:01:05;;;;;;;34.25;17.85;;;;;;;0.07;54.95;103305.50;3729015;78;99055;-81
2022/03/20 06:06:11;;;;;;;37.97;19.23;;;;;;;0.19;54.72;103305.78;3765469;78;99232;-80
2022/03/20 06:11:09;;;;;;;41.30;18.77;;;;;;;0.29;54.53;103309.23;3747110;78;98801;-79
2022/03/20 06:16:12;;;;;;;39.53;19.77;;;;;;;0.36;54.45;103316.16;3745113;77;31897;-80
2022/03/20 06:21:13;;;;;;;38.75;19.27;;;;;;;0.45;54.42;103313.91;3712518;78;99108;-80
2022/03/20 06:26:14;;;;;;;38.43;19.30;;;;;;;0.56;54.46;103321.98;3762751;78;98855;-80
2022/03/20 06:31:17;;;;;;;50.80;22.17;;;;;;;0.69;53.98;103316.81;3734405;77;98811;-81
2022/03/20 06:36:18;;;;;;;41.77;19.73;;;;;;;0.85;53.88;103316.05;3744470;76;98772;-81
2022/03/20 06:41:19;;;;;;;39.23;18.33;;;;;;;0.99;53.48;103323.64;3713636;78;98886;-81
2022/03/20 06:46:21;;;;;;;41.77;19.77;;;;;;;1.32;52.92;103325.05;3714068;78;31635;-81
2022/03/20 06:51:22;;;;;;;39.17;19.27;;;;;;;1.32;52.92;103325.05;3747024;78;98614;-81
2022/03/20 06:56:23;;;;;;;39.60;18.43;;;;;;;1.51;52.81;103333.27;3752118;78;99235;-81
2022/03/20 07:01:25;;;;;;;37.87;19.10;;;;;;;1.71;52.20;103339.00;3752091;76;99349;-80
2022/03/20 07:06:29;;;;;;;36.73;16.83;;;;;;;1.90;51.86;103345.83;3714829;78;99274;-80
2022/03/20 07:11:32;;;;;;;36.47;19.00;;;;;;;2.05;51.60;103350.14;3737508;78;98916;-81
2022/03/20 07:16:33;;;;;;;36.85;18.10;;;;;;;2.20;51.58;103347.62;3761976;77;31987;-80
2022/03/20 07:21:34;;;;;;;34.43;17.80;;;;;;;2.30;51.63;103355.91;3747257;77;98641;-82
2022/03/20 07:31:54;;;;;;;38.40;18.77;;;;;;;2.67;50.73;103350.16;3752553;78;98827;-80
2022/03/20 07:36:56;;;;;;;37.55;19.67;;;;;;;2.85;50.48;103344.93;3729496;78;98864;-81
2022/03/20 07:41:58;;;;;;;41.60;19.10;;;;;;;3.08;49.71;103342.75;3734787;78;98766;-80
2022/03/20 07:46:59;;;;;;;39.30;19.30;;;;;;;3.28;49.44;103351.09;3756294;77;98480;-81
2022/03/20 07:52:00;;;;;;;33.43;17.37;;;;;;;3.48;49.23;103343.12;3738654;78;99022;-77
2022/03/20 07:57:04;;;;;;;30.90;15.67;;;;;;;3.58;49.10;103343.74;3728081;77;98591;-77
2022/03/20 08:02:06;;;;;;;31.65;16.40;;;;;;;3.76;48.88;103337.36;3744287;78;98910;-77
2022/03/20 08:07:07;;;;;;;29.85;16.15;;;;;;;4.12;47.94;103331.60;3741835;77;99503;-79
2022/03/20 08:12:09;;;;;;;33.60;16.33;;;;;;;4.39;47.24;103336.39;3729639;77;99341;-77
2022/03/20 08:17:10;;;;;;;39.43;17.03;;;;;;;4.64;46.48;103335.95;3736899;77;99079;-77
2022/03/20 08:22:11;;;;;;;31.90;16.40;;;;;;;4.91;45.73;103320.78;3753112;78;32331;-78
2022/03/20 08:27:12;;;;;;;30.33;16.17;;;;;;;5.14;46.06;103323.80;3741845;77;99104;-78
2022/03/20 08:32:13;;;;;;;28.40;17.13;;;;;;;5.47;45.37;103324.69;3739129;78;98882;-78
2022/03/20 08:37:17;;;;;;;33.47;19.57;;;;;;;5.82;44.84;103325.23;3711437;78;98856;-79
2022/03/20 08:42:19;;;;;;;29.67;18.32;;;;;;;6.19;44.19;103326.55;3737260;77;98805;-77
2022/03/20 08:47:20;;;;;;;36.68;19.45;;;;;;;6.50;42.79;103318.48;3722882;78;98839;-77
2022/03/20 08:52:21;;;;;;;37.50;21.47;;;;;;;6.85;42.74;103325.19;3718079;78;32264;-79
2022/03/20 08:57:25;;;;;;;34.40;18.43;;;;;;;7.27;42.37;103309.04;3722084;78;98763;-79
2022/03/20 09:02:25;;;;;;;35.83;20.70;;;;;;;7.71;40.50;103303.45;3736546;78;98715;-80
2022/03/20 09:07:29;;;;;;;33.13;18.90;;;;;;;8.18;40.58;103301.59;3721508;77;98899;-79
2022/03/20 09:12:30;;;;;;;28.05;17.27;;;;;;;8.75;40.11;103293.78;3713078;78;98867;-79
2022/03/20 09:22:59;;;;;;;25.20;14.98;;;;;;;9.77;37.55;103290.75;3744184;78;33237;-77
2022/03/20 09:28:02;;;;;;;23.65;13.68;;;;;;;10.16;36.90;103286.22;3724127;78;99157;-80
2022/03/20 09:33:05;;;;;;;23.70;13.32;;;;;;;10.52;34.15;103281.05;3725403;78;98976;-79
2022/03/20 09:38:09;;;;;;;22.77;12.50;;;;;;;11.00;34.65;103286.32;3735620;77;99222;-79
2022/03/20 09:43:10;;;;;;;21.80;12.75;;;;;;;12.18;33.98;103281.92;3727504;78;99547;-80
2022/03/20 09:48:14;;;;;;;23.20;13.73;;;;;;;12.18;33.98;103281.92;3725424;77;99535;-78
2022/03/20 09:53:16;;;;;;;22.27;13.50;;;;;;;12.72;32.57;103276.73;3738728;78;99601;-80
2022/03/20 09:58:19;;;;;;;23.53;12.97;;;;;;;12.82;30.79;103283.89;3722687;78;98831;-78
2022/03/20 10:03:23;;;;;;;23.85;13.95;;;;;;;13.08;32.23;103275.09;3730558;78;99063;-80
2022/03/20 10:08:26;;;;;;;20.62;12.78;;;;;;;13.35;30.57;103287.20;3734086;77;99119;-80
2022/03/20 10:13:27;;;;;;;28.27;14.30;;;;;;;13.56;31.55;103277.88;3732717;77;99189;-79
2022/03/20 10:18:33;;;;;;;24.53;14.00;;;;;;;13.80;30.78;103273.19;3735155;77;99278;-77
2022/03/20 10:23:41;;;;;;;24.43;15.55;;;;;;;14.34;31.00;103274.53;3718954;78;99356;-77
2022/03/20 10:28:52;;;;;;;26.25;15.35;;;;;;;14.57;29.64;103281.44;3680109;80;99159;-77
2022/03/20 10:34:02;;;;;;;24.57;15.38;;;;;;;14.66;29.15;103274.45;3619554;81;99639;-77
2022/03/20 10:39:11;;;;;;;24.90;15.03;;;;;;;14.24;29.13;103262.47;3538537;81;99465;-78
2022/03/20 10:44:26;;;;;;;25.55;16.15;;;;;;;14.55;29.28;103264.31;3549929;81;99596;-80
2022/03/20 10:49:28;;;;;;;25.10;16.80;;;;;;;14.38;27.80;103263.03;3573583;81;99604;-78
2022/03/20 10:54:45;;;;;;;24.92;14.53;;;;;;;14.21;28.30;103244.29;3574299;80;99302;-78
2022/03/20 11:00:01;;;;;;;26.30;15.35;;;;;;;13.80;26.68;103239.97;3572668;81;99270;-78
2022/03/20 11:05:02;;;;;;;;;;;;;;;13.60;28.43;103247.59;3552235;81;25953;-78
2022/03/20 11:10:11;;;;;;;19.67;12.83;;;;;;;14.13;28.12;103229.89;3579163;81;84890;-78
2022/03/20 11:15:09;;;;;;;24.55;14.95;;;;;;;14.12;27.56;103232.43;3581877;81;99761;-77
2022/03/20 11:20:17;;;;;;;24.10;12.93;;;;;;;14.41;28.47;103218.59;3576170;81;99685;-79
2022/03/20 11:25:24;;;;;;;21.95;12.80;;;;;;;14.43;27.61;103225.43;3573625;82;99868;-80
2022/03/20 11:30:32;;;;;;;20.80;12.93;;;;;;;14.19;26.76;103209.16;3574231;80;99994;-76
2022/03/20 11:35:36;;;;;;;21.23;13.90;;;;;;;14.52;27.40;103210.13;3649952;80;99893;-79
2022/03/20 11:40:41;;;;;;;20.48;11.18;;;;;;;14.14;25.40;103203.81;3633324;80;98834;-78
2022/03/20 11:45:40;;;;;;;18.02;11.30;;;;;;;13.97;26.76;103192.27;3645203;79;99685;-78
2022/03/20 11:50:51;;;;;;;21.03;10.90;;;;;;;14.30;25.51;103183.55;3667745;80;99692;-79
2022/03/20 11:55:53;;;;;;;16.93;10.30;;;;;;;13.98;26.20;103187.52;3639535;80;99810;-79
2022/03/20 12:01:06;;;;;;;19.67;10.25;;;;;;;14.32;27.18;103174.32;3675312;78;99870;-79
2022/03/20 12:06:42;;;;;;;16.93;9.33;;;;;;;14.23;26.35;103170.78;3684797;79;99788;-79
2022/03/20 12:12:13;;;;;;;18.23;9.28;;;;;;;14.19;25.42;103174.01;3678200;80;99541;-80
2022/03/20 12:17:16;;;;;;;15.58;9.28;;;;;;;14.01;24.51;103158.58;3672218;79;98838;-79
2022/03/20 12:22:28;;;;;;;18.25;9.85;;;;;;;13.74;24.39;103145.80;3611128;80;33179;-79
2022/03/20 12:27:36;;;;;;;15.93;8.78;;;;;;;13.78;26.01;103142.58;3679238;78;99131;-78
2022/03/20 12:33:00;;;;;;;18.40;10.28;;;;;;;13.94;26.21;103133.94;3721339;79;98771;-80
2022/03/20 12:37:57;;;;;;;18.42;10.53;;;;;;;14.07;25.69;103141.22;3717338;77;99135;-79
2022/03/20 12:43:10;;;;;;;17.60;10.03;;;;;;;13.74;26.02;103122.27;3737383;77;99295;-79
2022/03/20 12:48:17;;;;;;;18.17;10.80;;;;;;;13.70;26.00;103119.91;3707556;78;99408;-79
2022/03/20 12:53:21;;;;;;;19.05;10.20;;;;;;;13.59;25.73;103111.75;3720331;79;99181;-78
2022/03/20 12:58:23;;;;;;;17.57;9.40;;;;;;;13.40;26.03;103105.23;3729406;77;98892;-79
2022/03/20 13:03:30;;;;;;;19.25;9.98;;;;;;;13.58;25.67;103099.86;3724334;79;99235;-78
2022/03/20 13:08:39;;;;;;;20.85;9.45;;;;;;;13.18;25.42;103096.34;3704341;77;99001;-79
2022/03/20 13:13:40;;;;;;;17.52;9.50;;;;;;;12.98;24.48;103086.02;3695795;79;98997;-79
2022/03/20 13:18:42;;;;;;;19.43;10.30;;;;;;;13.09;26.91;103080.37;3701987;79;98994;-78
2022/03/20 13:23:45;;;;;;;19.30;10.63;;;;;;;13.20;26.45;103071.95;3719224;79;99189;-78
2022/03/20 13:28:48;;;;;;;14.73;8.38;;;;;;;13.24;26.95;103064.63;3724118;77;99425;-79
2022/03/20 13:34:00;;;;;;;16.87;8.63;;;;;;;13.09;24.99;103056.87;3709666;79;98826;-79
2022/03/20 13:39:09;;;;;;;16.67;9.03;;;;;;;12.75;25.11;103057.73;3706977;79;99117;-79
2022/03/20 13:44:12;;;;;;;17.48;8.73;;;;;;;12.72;25.49;103047.34;3712308;78;98965;-78
2022/03/20 13:49:14;;;;;;;16.75;7.65;;;;;;;12.84;26.84;103039.74;3675785;77;99154;-80
2022/03/20 13:54:23;;;;;;;14.18;8.13;;;;;;;12.92;25.63;103046.63;3669669;78;98966;-80
2022/03/20 13:59:24;;;;;;;17.77;8.70;;;;;;;12.73;24.77;103040.67;3722653;79;99049;-79
2022/03/20 14:04:27;;;;;;;14.68;7.60;;;;;;;12.56;26.14;103031.59;3633451;79;33853;-78
2022/03/20 14:09:37;;;;;;;15.32;8.53;;;;;;;12.59;26.32;103033.13;3734716;77;99008;-79
2022/03/20 14:14:47;;;;;;;19.10;7.97;;;;;;;12.54;25.78;103022.84;3709345;79;98758;-78
2022/03/20 14:19:49;;;;;;;14.90;8.13;;;;;;;12.38;25.91;103012.84;3709732;78;99115;-77
2022/03/20 14:25:00;;;;;;;14.45;6.85;;;;;;;12.33;26.30;103013.59;3732720;79;99012;-78
2022/03/20 14:40:50;;;;;;;15.68;7.97;;;;;;;11.96;25.54;103010.92;3723094;78;98549;-79
2022/03/20 14:45:50;;;;;;;13.70;6.30;;;;;;;11.83;25.56;102991.17;3722558;78;98863;-79
2022/03/20 14:50:51;;;;;;;17.52;7.95;;;;;;;11.79;26.19;102995.74;3724112;77;98364;-79
2022/03/20 14:55:52;;;;;;;14.47;7.77;;;;;;;11.79;26.19;102995.74;3719494;79;98911;-80
2022/03/20 15:00:56;;;;;;;13.67;7.30;;;;;;;11.67;26.03;102983.13;3727734;79;99324;-79
2022/03/20 15:05:58;;;;;;;12.68;6.62;;;;;;;11.56;24.60;102978.22;3725560;77;98944;-79
2022/03/20 15:16:19;;;;;;;13.13;6.92;;;;;;;11.39;24.75;102967.16;3710746;79;98564;-79
2022/03/20 15:21:20;;;;;;;13.88;7.22;;;;;;;11.27;24.95;102971.91;3709729;78;98700;-78
2022/03/20 15:26:22;;;;;;;12.70;7.13;;;;;;;11.21;25.01;102965.47;3701378;79;98979;-80
2022/03/20 15:31:24;;;;;;;14.23;7.03;;;;;;;11.17;25.64;102965.89;3728138;79;99009;-79
2022/03/20 15:36:26;;;;;;;14.55;7.30;;;;;;;11.08;25.26;102970.55;3722944;79;99009;-79
2022/03/20 15:41:28;;;;;;;16.07;7.80;;;;;;;11.00;25.16;102965.80;3698277;79;99683;-79
2022/03/20 15:46:29;;;;;;;15.63;7.35;;;;;;;10.91;25.39;102964.39;3729946;79;34050;-80
2022/03/20 15:51:30;;;;;;;17.57;9.23;;;;;;;10.85;25.54;102959.36;3726462;77;98813;-79
2022/03/20 15:56:33;;;;;;;14.60;7.47;;;;;;;10.77;24.79;102946.34;3735063;78;99053;-80
2022/03/20 16:01:34;;;;;;;16.00;6.87;;;;;;;10.68;26.52;102950.44;3720220;79;98309;-80
2022/03/20 16:06:35;;;;;;;14.15;6.42;;;;;;;10.56;26.39;102941.13;3722918;77;98895;-79
2022/03/20 16:11:36;;;;;;;16.00;7.87;;;;;;;10.50;26.30;102943.77;3729127;76;99005;-80
2022/03/20 16:16:37;;;;;;;32.83;19.60;;;;;;;10.41;25.49;102941.55;3723908;77;98787;-80
2022/03/20 16:21:38;;;;;;;15.57;8.07;;;;;;;10.32;25.74;102939.30;3734578;77;98996;-80
2022/03/20 16:32:11;;;;;;;18.80;8.15;;;;;;;10.12;25.92;102935.13;3729076;78;99033;-79
2022/03/20 16:37:11;;;;;;;17.05;9.05;;;;;;;10.00;26.73;102938.16;3719939;77;99028;-80
2022/03/20 16:42:12;;;;;;;17.05;8.53;;;;;;;9.91;26.24;102944.14;3712846;78;99060;-80
2022/03/20 16:47:13;;;;;;;14.50;7.70;;;;;;;9.80;26.23;102941.38;3728572;78;98343;-79
2022/03/20 16:52:14;;;;;;;17.53;8.70;;;;;;;9.67;26.31;102941.70;3726437;78;98237;-79
2022/03/20 16:57:17;;;;;;;19.70;10.07;;;;;;;9.53;27.08;102942.28;3707056;77;98546;-78
2022/03/20 17:02:18;;;;;;;20.45;10.25;;;;;;;9.38;27.96;102941.24;3650386;80;98909;-80
2022/03/20 17:07:19;;;;;;;20.77;9.07;;;;;;;9.21;27.38;102949.31;3717887;77;98885;-80
2022/03/20 17:12:22;;;;;;;18.53;8.80;;;;;;;9.07;27.90;102940.83;3728975;78;98671;-79
2022/03/20 17:17:24;;;;;;;19.77;9.30;;;;;;;8.91;28.58;102947.20;3709217;78;98970;-77
2022/03/20 17:22:25;;;;;;;30.60;13.32;;;;;;;8.77;28.47;102949.11;3729969;78;31273;-78
2022/03/20 17:27:28;;;;;;;31.20;15.83;;;;;;;8.62;29.15;102955.45;3694505;78;98745;-78
2022/03/20 17:32:29;;;;;;;26.97;13.55;;;;;;;8.44;28.86;102954.94;3731792;78;98758;-79
2022/03/20 17:37:32;;;;;;;24.77;13.10;;;;;;;8.25;28.75;102955.02;3702869;78;98892;-80
2022/03/20 17:42:34;;;;;;;24.07;11.78;;;;;;;8.11;28.96;102968.38;3642149;79;98890;-78
2022/03/20 17:47:35;;;;;;;25.55;12.45;;;;;;;7.96;29.17;102960.41;3636782;79;98901;-79
2022/03/20 17:52:38;;;;;;;33.07;14.83;;;;;;;7.78;29.43;102962.05;3717770;78;31635;-79
2022/03/20 17:57:39;;;;;;;28.35;14.43;;;;;;;7.60;30.00;102951.91;3714758;78;98671;-79
2022/03/20 18:08:06;;;;;;;29.82;14.68;;;;;;;7.34;30.74;102952.53;3736163;77;99101;-78
2022/03/20 18:13:09;;;;;;;28.55;14.28;;;;;;;7.21;31.19;102954.63;3739337;78;98811;-79
2022/03/20 18:18:11;;;;;;;28.23;14.10;;;;;;;7.07;31.62;102957.27;3741389;78;98859;-80
2022/03/20 18:23:14;;;;;;;29.95;13.93;;;;;;;6.98;31.96;102952.16;3755921;78;33074;-81
2022/03/20 18:28:15;;;;;;;30.52;15.28;;;;;;;6.88;32.29;102953.64;3748106;77;98780;-80
2022/03/20 18:33:18;;;;;;;29.52;13.18;;;;;;;6.79;32.47;102954.58;3737835;78;98972;-80
2022/03/20 18:38:21;;;;;;;28.77;14.45;;;;;;;6.70;32.75;102960.44;3748810;78;99205;-80
2022/03/20 18:43:23;;;;;;;32.35;16.37;;;;;;;6.62;33.01;102960.52;3719918;78;99185;-80
2022/03/20 18:48:24;;;;;;;30.43;14.53;;;;;;;6.56;33.78;102959.48;3712433;78;99512;-81
2022/03/20 18:53:26;;;;;;;27.73;14.33;;;;;;;6.50;33.62;102962.00;3702201;78;99006;-79
2022/03/20 18:58:27;;;;;;;32.33;15.15;;;;;;;6.43;33.67;102958.80;3737883;78;98898;-80
2022/03/20 19:03:29;;;;;;;59.43;22.20;;;;;;;6.35;33.99;102964.34;3706786;78;98552;-80
2022/03/20 19:08:30;;;;;;;50.63;22.07;;;;;;;6.32;34.04;102959.42;3718018;78;98859;-80
2022/03/20 19:13:32;;;;;;;31.57;16.00;;;;;;;6.26;34.25;102966.58;3724476;78;98743;-80
2022/03/20 19:18:33;;;;;;;26.12;13.32;;;;;;;6.21;34.50;102968.02;3726414;78;99238;-79
2022/03/20 19:23:35;;;;;;;43.20;18.73;;;;;;;6.16;34.72;102972.16;3740973;78;99332;-80
2022/03/20 19:28:36;;;;;;;57.97;21.50;;;;;;;6.05;35.11;102974.14;3708951;78;99216;-80
2022/03/20 19:33:37;;;;;;;39.33;17.63;;;;;;;5.99;35.56;102975.28;3737485;78;98977;-80
2022/03/20 19:43:59;;;;;;;30.50;14.55;;;;;;;5.87;35.57;102978.94;3731976;78;99487;-80
2022/03/20 19:49:00;;;;;;;27.20;12.70;;;;;;;5.85;35.75;102979.74;3712777;77;98798;-80
2022/03/20 19:54:01;;;;;;;28.35;13.32;;;;;;;5.79;35.93;102986.31;3725301;78;99291;-78
2022/03/20 19:59:04;;;;;;;23.33;11.57;;;;;;;5.72;36.22;102983.09;3729986;78;98870;-80
2022/03/20 20:04:07;;;;;;;27.75;12.70;;;;;;;5.65;36.42;102982.59;3730852;78;99052;-81
2022/03/20 20:09:12;;;;;;;29.73;14.77;;;;;;;5.56;36.90;102980.74;3734202;77;99157;-80
2022/03/20 20:19:35;;;;;;;22.87;12.23;;;;;;;5.43;37.41;102985.44;3723231;77;98930;-79
2022/03/20 20:24:36;;;;;;;26.52;13.22;;;;;;;5.34;37.84;102986.58;3742807;78;98828;-79
2022/03/20 20:29:38;;;;;;;24.30;11.70;;;;;;;5.25;37.96;102985.51;3727955;77;99245;-81
2022/03/20 20:34:41;;;;;;;24.10;11.90;;;;;;;5.20;37.91;102982.00;3663478;80;29361;-80
2022/03/20 20:39:47;;;;;;;26.42;11.88;;;;;;;5.15;38.09;102978.75;3666659;78;99073;-81
2022/03/20 20:44:48;;;;;;;27.97;13.10;;;;;;;5.08;38.60;102978.78;3672294;79;98701;-80
2022/03/20 20:49:49;;;;;;;28.23;14.47;;;;;;;5.02;38.49;102975.80;3655336;78;98777;-79
2022/03/20 20:54:50;;;;;;;28.67;12.93;;;;;;;5.02;38.44;102979.33;3669014;79;99319;-80
2022/03/20 20:59:51;;;;;;;26.90;14.23;;;;;;;4.97;38.84;102983.44;3649110;78;98698;-79
2022/03/20 21:04:54;;;;;;;26.97;14.60;;;;;;;4.90;38.95;102987.55;3672515;79;31542;-80
2022/03/20 21:15:16;;;;;;;25.70;13.22;;;;;;;4.80;39.25;102983.50;3702210;78;98638;-78
2022/03/20 21:20:17;;;;;;;32.93;15.53;;;;;;;4.72;39.17;102985.41;3706103;77;98828;-78
2022/03/20 21:25:18;;;;;;;25.80;14.73;;;;;;;4.67;39.45;102984.06;3708822;77;99159;-78
2022/03/20 21:30:21;;;;;;;31.30;14.27;;;;;;;4.60;39.61;102978.08;3701066;78;99069;-79
2022/03/20 21:35:23;;;;;;;29.82;14.73;;;;;;;4.52;39.63;102982.70;3741235;78;33286;-78
2022/03/20 21:40:24;;;;;;;35.00;17.07;;;;;;;4.47;39.89;102986.27;3733874;77;98438;-79
2022/03/20 21:45:25;;;;;;;64.43;35.20;;;;;;;4.43;40.39;102983.02;3744848;77;99035;-79
2022/03/20 21:50:28;;;;;;;29.80;14.17;;;;;;;4.37;40.31;102989.00;3725592;77;98850;-79
2022/03/20 21:55:31;;;;;;;33.30;14.78;;;;;;;4.35;40.16;102987.63;3744216;78;99169;-79
2022/03/20 22:00:33;;;;;;;49.05;25.95;;;;;;;4.33;40.24;102985.73;3683650;78;98856;-79
2022/03/20 22:05:34;;;;;;;28.12;14.50;;;;;;;4.23;40.61;102989.30;3667321;77;99358;-77
2022/03/20 22:10:37;;;;;;;32.37;14.83;;;;;;;4.18;40.38;102992.02;3650222;78;98720;-78
2022/03/20 22:15:38;;;;;;;34.80;16.25;;;;;;;4.16;40.50;102990.65;3688893;78;98615;-78
2022/03/20 22:20:39;;;;;;;28.87;14.83;;;;;;;4.11;40.76;102987.39;3715946;78;98809;-77
2022/03/20 22:25:42;;;;;;;44.80;23.93;;;;;;;4.07;40.78;102993.63;3739833;77;98744;-76
2022/03/20 22:30:44;;;;;;;29.98;14.75;;;;;;;4.03;40.89;102988.45;3623427;80;98789;-79
2022/03/20 22:41:06;;;;;;;28.45;13.93;;;;;;;3.94;41.34;102989.52;3664065;79;98705;-79
2022/03/20 22:46:10;;;;;;;31.97;12.90;;;;;;;3.87;41.36;102982.73;3577382;81;98650;-77
2022/03/20 22:51:11;;;;;;;45.38;25.37;;;;;;;3.78;41.58;102993.31;3617219;80;98739;-79
2022/03/20 22:56:13;;;;;;;37.87;17.63;;;;;;;3.72;41.64;102988.14;3639016;79;98908;-78
2022/03/20 23:01:14;;;;;;;37.20;15.15;;;;;;;3.67;41.97;102982.69;3637062;80;98768;-80
2022/03/20 23:06:15;;;;;;;30.77;13.80;;;;;;;3.60;41.79;102991.66;3654616;80;98851;-79
2022/03/20 23:11:16;;;;;;;27.60;13.33;;;;;;;3.55;41.83;102991.65;3639931;80;98595;-79
2022/03/20 23:16:17;;;;;;;25.60;13.23;;;;;;;3.51;42.04;102987.28;3639581;79;98584;-79
2022/03/20 23:21:19;;;;;;;36.73;16.97;;;;;;;3.43;42.41;102980.16;3634201;80;98733;-79
2022/03/20 23:26:20;;;;;;;40.37;19.73;;;;;;;3.33;42.45;102981.50;3660818;79;98802;-81
2022/03/20 23:31:21;;;;;;;36.87;16.77;;;;;;;3.24;42.56;102990.73;3656487;79;98911;-81
2022/03/20 23:36:22;;;;;;;33.23;15.47;;;;;;;3.16;43.06;102987.70;3615962;80;98844;-81
2022/03/20 23:46:43;;;;;;;33.50;14.87;;;;;;;3.01;43.28;102981.62;3612576;79;98645;-81
2022/03/20 23:51:45;;;;;;;30.40;14.70;;;;;;;2.94;43.34;102982.41;3615221;80;99019;-82
2022/03/20 23:56:47;;;;;;;27.32;13.38;;;;;;;2.86;43.74;102978.02;3605492;80;98770;-80
